Time;durP1;ratioP1;P1;durP2;ratioP2;P2;SDS_P1;SDS_P2;PMS_P1;PMS_P2;Temp;Humidity;BMP_temperature;BMP_pressure;BME280_temperature;BME280_humidity;BME280_pressure;Samples;Min_cycle;Max_cycle;Signal;HPM_P1;HPM_P2
2022/04/27 00:01:51;;;;;;;6.23;3.90;;;7.20;99.90;;;;;;5037204;28;20335;-44
2022/04/27 00:04:16;;;;;;;5.17;3.83;;;7.20;99.90;;;;;;5035430;28;20259;-39
2022/04/27 00:06:42;;;;;;;4.87;3.73;;;7.20;99.90;;;;;;5034737;28;20197;-40
2022/04/27 00:09:07;;;;;;;4.57;3.60;;;7.20;99.90;;;;;;5034494;28;20205;-41
2022/04/27 00:11:33;;;;;;;5.67;3.90;;;7.10;99.90;;;;;;5034700;28;20209;-39
2022/04/27 00:14:00;;;;;;;6.00;3.70;;;7.10;99.90;;;;;;5035128;28;20629;-39
2022/04/27 00:16:27;;;;;;;6.27;4.10;;;7.10;99.90;;;;;;5034507;28;20202;-41
2022/04/27 00:18:52;;;;;;;5.93;3.80;;;7.00;99.90;;;;;;5034569;28;20203;-39
2022/04/27 00:21:18;;;;;;;7.70;4.20;;;7.00;99.90;;;;;;5034531;28;20713;-40
2022/04/27 00:23:43;;;;;;;7.63;4.00;;;7.00;99.90;;;;;;5034439;28;20215;-41
2022/04/27 00:26:09;;;;;;;5.90;4.10;;;6.90;99.90;;;;;;5036999;28;20633;-46
2022/04/27 00:28:35;;;;;;;5.10;3.70;;;6.90;99.90;;;;;;5037437;28;20192;-45
2022/04/27 00:31:00;;;;;;;4.13;3.63;;;6.90;99.90;;;;;;5037460;28;20184;-44
2022/04/27 00:33:26;;;;;;;6.03;3.90;;;6.80;99.90;;;;;;5037630;28;20181;-44
2022/04/27 00:35:52;;;;;;;5.57;4.30;;;6.80;99.90;;;;;;5037243;28;20274;-44
2022/04/27 00:38:18;;;;;;;4.97;4.27;;;6.70;99.90;;;;;;5036965;28;20226;-44
2022/04/27 00:40:44;;;;;;;8.33;4.30;;;6.70;99.90;;;;;;5036982;28;20192;-46
2022/04/27 00:43:12;;;;;;;7.27;4.47;;;6.70;99.90;;;;;;5037635;28;20203;-45
2022/04/27 00:45:38;;;;;;;7.10;4.10;;;6.70;99.90;;;;;;5036805;28;20197;-44
2022/04/27 00:48:04;;;;;;;6.30;4.00;;;6.70;99.90;;;;;;5037200;28;20197;-45
2022/04/27 00:50:30;;;;;;;6.07;4.20;;;6.60;99.90;;;;;;5036582;28;20310;-42
2022/04/27 00:52:55;;;;;;;6.50;4.07;;;6.60;99.90;;;;;;5036732;28;20180;-47
2022/04/27 00:55:21;;;;;;;5.60;4.10;;;6.60;99.90;;;;;;5037096;28;20279;-45
2022/04/27 00:57:47;;;;;;;6.57;4.17;;;6.50;99.90;;;;;;5037046;28;20308;-45
2022/04/27 01:00:14;;;;;;;7.63;4.60;;;6.50;99.90;;;;;;5036803;28;20188;-45
2022/04/27 01:02:40;;;;;;;4.70;4.30;;;6.50;99.90;;;;;;5036397;28;20202;-44
2022/04/27 01:05:11;;;;;;;6.73;4.53;;;6.40;99.90;;;;;;5036140;28;20188;-45
2022/04/27 01:07:41;;;;;;;4.83;4.27;;;6.40;99.90;;;;;;5036662;28;20220;-46
2022/04/27 01:10:09;;;;;;;7.67;4.43;;;6.30;99.90;;;;;;5036338;28;20176;-44
2022/04/27 01:12:36;;;;;;;5.60;3.97;;;6.20;99.90;;;;;;5035872;28;20539;-46
2022/04/27 01:15:02;;;;;;;7.60;4.50;;;6.20;99.90;;;;;;5036364;28;20181;-46
2022/04/27 01:17:28;;;;;;;6.37;4.23;;;6.20;99.90;;;;;;5036352;28;20289;-46
2022/04/27 01:19:53;;;;;;;4.10;3.67;;;6.20;99.90;;;;;;5034968;28;20273;-46
2022/04/27 01:22:20;;;;;;;5.90;4.23;;;6.10;99.90;;;;;;5035995;28;20179;-44
2022/04/27 01:24:46;;;;;;;5.57;4.70;;;6.10;99.90;;;;;;5036605;28;20171;-46
2022/04/27 01:27:11;;;;;;;8.47;4.67;;;6.10;99.90;;;;;;5036293;28;20194;-46
2022/04/27 01:29:37;;;;;;;7.23;4.57;;;6.10;99.90;;;;;;5037972;28;20186;-47
2022/04/27 01:32:03;;;;;;;8.33;4.57;;;6.10;99.90;;;;;;5037659;28;20178;-45
2022/04/27 01:34:29;;;;;;;6.27;4.50;;;6.10;99.90;;;;;;5038025;28;20176;-43
2022/04/27 01:37:59;;;;;;;7.20;4.60;;;6.10;99.90;;;;;;5037597;28;20727;-44
2022/04/27 01:39:41;;;;;;;5.80;4.43;;;6.10;99.90;;;;;;5037467;28;20233;-43
2022/04/27 01:42:06;;;;;;;10.83;4.80;;;6.10;99.90;;;;;;5037926;28;20261;-47
2022/04/27 01:44:32;;;;;;;6.43;4.40;;;6.10;99.90;;;;;;5037926;28;20218;-43
2022/04/27 01:46:59;;;;;;;4.40;3.70;;;6.10;99.90;;;;;;5038578;28;20231;-43
2022/04/27 01:49:25;;;;;;;6.73;4.37;;;6.10;99.90;;;;;;5037652;28;20182;-45
2022/04/27 01:54:34;;;;;;;4.93;3.90;;;6.00;99.90;;;;;;5037656;28;20181;-46
2022/04/27 01:57:00;;;;;;;7.83;4.37;;;6.10;99.90;;;;;;5036594;28;20194;-41
2022/04/27 01:59:25;;;;;;;7.77;4.73;;;6.00;99.90;;;;;;5032844;28;20182;-42
2022/04/27 02:01:51;;;;;;;7.30;4.57;;;6.10;99.90;;;;;;5034229;28;20652;-41
2022/04/27 02:04:17;;;;;;;6.87;4.77;;;6.00;99.90;;;;;;5037146;28;20189;-41
2022/04/27 02:06:42;;;;;;;6.27;4.83;;;6.00;99.90;;;;;;5037062;28;20223;-40
2022/04/27 02:09:08;;;;;;;5.63;4.43;;;6.10;99.90;;;;;;5037006;28;20674;-42
2022/04/27 02:11:34;;;;;;;9.90;5.03;;;6.10;99.90;;;;;;5037056;28;20541;-41
2022/04/27 02:14:01;;;;;;;8.30;5.23;;;6.10;99.90;;;;;;5037215;28;20194;-42
2022/04/27 02:16:28;;;;;;;11.13;5.37;;;6.10;99.90;;;;;;5040442;28;20203;-42
2022/04/27 02:18:55;;;;;;;7.03;5.17;;;6.10;99.90;;;;;;5037410;28;20185;-39
2022/04/27 02:21:22;;;;;;;5.67;4.83;;;6.10;99.90;;;;;;5037620;28;20646;-39
2022/04/27 02:23:49;;;;;;;8.83;5.17;;;6.00;99.90;;;;;;5037036;28;20200;-40
2022/04/27 02:26:15;;;;;;;9.30;5.27;;;6.00;99.90;;;;;;5036767;28;20579;-40
2022/04/27 02:28:41;;;;;;;7.63;5.30;;;6.00;99.90;;;;;;5037015;28;20185;-38
2022/04/27 02:31:07;;;;;;;9.93;5.57;;;6.00;99.90;;;;;;5036656;28;20186;-41
2022/04/27 02:33:33;;;;;;;8.57;5.33;;;6.00;99.90;;;;;;5036888;28;20580;-40
2022/04/27 02:35:59;;;;;;;7.33;4.73;;;5.90;99.90;;;;;;5036481;28;20186;-42
2022/04/27 02:38:24;;;;;;;8.20;5.17;;;5.90;99.90;;;;;;5036624;28;20232;-39
2022/04/27 02:40:50;;;;;;;11.57;5.33;;;5.90;99.90;;;;;;5035227;28;20176;-39
2022/04/27 02:43:16;;;;;;;8.13;5.50;;;5.80;99.90;;;;;;5035079;28;20203;-39
2022/04/27 02:45:42;;;;;;;10.10;5.17;;;5.80;99.90;;;;;;5036612;28;20627;-40
2022/04/27 02:48:09;;;;;;;11.30;5.33;;;5.80;99.90;;;;;;5036480;28;20226;-40
2022/04/27 02:53:19;;;;;;;8.97;5.63;;;5.70;99.90;;;;;;5036258;28;20711;-39
2022/04/27 02:55:45;;;;;;;7.80;5.00;;;5.70;99.90;;;;;;5036074;28;20259;-39
2022/04/27 02:58:10;;;;;;;5.00;4.40;;;5.60;99.90;;;;;;5036148;28;20657;-38
2022/04/27 03:00:36;;;;;;;8.00;5.43;;;5.60;99.90;;;;;;5036197;28;20185;-40
2022/04/27 03:03:02;;;;;;;5.73;4.63;;;5.60;99.90;;;;;;5035036;28;20240;-39
2022/04/27 03:05:28;;;;;;;8.23;4.93;;;5.50;99.90;;;;;;5036022;28;20664;-40
2022/04/27 03:07:54;;;;;;;5.97;5.00;;;5.40;99.90;;;;;;5035838;28;20195;-40
2022/04/27 03:10:20;;;;;;;6.53;5.33;;;5.40;99.90;;;;;;5036032;28;20634;-38
2022/04/27 03:12:46;;;;;;;7.43;5.37;;;5.30;99.90;;;;;;5035850;28;20185;-41
2022/04/27 03:15:11;;;;;;;7.17;5.50;;;5.20;99.90;;;;;;5035966;28;20187;-38
2022/04/27 03:17:37;;;;;;;9.13;6.10;;;5.20;99.90;;;;;;5036703;28;20206;-39
2022/04/27 03:20:04;;;;;;;9.03;5.90;;;5.20;99.90;;;;;;5035518;28;20242;-40
2022/04/27 03:22:30;;;;;;;8.23;5.83;;;5.10;99.90;;;;;;5036077;28;20669;-41
2022/04/27 03:24:55;;;;;;;8.90;6.30;;;5.10;99.90;;;;;;5035524;28;20175;-40
2022/04/27 03:27:21;;;;;;;10.63;5.90;;;5.10;99.90;;;;;;5035486;28;20198;-41
2022/04/27 03:29:47;;;;;;;9.13;5.93;;;5.10;99.90;;;;;;5035482;28;20173;-40
2022/04/27 03:32:12;;;;;;;7.47;5.53;;;5.10;99.90;;;;;;5035393;28;20185;-41
2022/04/27 03:34:38;;;;;;;9.60;5.97;;;5.10;99.90;;;;;;5035921;28;20205;-42
2022/04/27 03:37:04;;;;;;;9.50;6.27;;;5.10;99.90;;;;;;5035665;28;20226;-41
2022/04/27 03:39:29;;;;;;;9.60;6.37;;;5.10;99.90;;;;;;5035247;28;20199;-41
2022/04/27 03:41:57;;;;;;;13.80;6.50;;;5.10;99.90;;;;;;5035365;28;20697;-40
2022/04/27 03:44:23;;;;;;;8.53;6.03;;;5.10;99.90;;;;;;5035100;28;20627;-42
2022/04/27 03:46:49;;;;;;;8.93;6.20;;;5.10;99.90;;;;;;5035411;28;20339;-40
2022/04/27 03:49:14;;;;;;;11.57;6.83;;;5.10;99.90;;;;;;5034201;28;20280;-41
2022/04/27 03:51:40;;;;;;;10.63;6.07;;;5.10;99.90;;;;;;5035648;28;20181;-41
2022/04/27 03:54:05;;;;;;;7.50;6.20;;;5.10;99.90;;;;;;5035399;28;20571;-41
2022/04/27 03:56:31;;;;;;;8.80;5.97;;;5.00;99.90;;;;;;5035131;28;20196;-38
2022/04/27 03:58:57;;;;;;;9.73;6.50;;;5.10;99.90;;;;;;5034935;28;20182;-41
2022/04/27 04:01:23;;;;;;;8.67;6.97;;;5.00;99.90;;;;;;5033644;28;20185;-40
2022/04/27 04:03:49;;;;;;;12.87;7.30;;;5.00;99.90;;;;;;5034876;28;20247;-40
2022/04/27 04:06:15;;;;;;;9.10;6.87;;;5.00;99.90;;;;;;5035137;28;20205;-41
2022/04/27 04:08:40;;;;;;;8.90;6.93;;;5.00;99.90;;;;;;5034681;28;20172;-43
2022/04/27 04:11:06;;;;;;;9.83;6.40;;;5.00;99.90;;;;;;5034725;28;20220;-41
2022/04/27 04:13:31;;;;;;;10.43;7.53;;;5.00;99.90;;;;;;5035035;28;20193;-39
2022/04/27 04:15:57;;;;;;;13.07;7.33;;;5.00;99.90;;;;;;5034532;28;20260;-40
2022/04/27 04:18:23;;;;;;;11.73;8.10;;;4.90;99.90;;;;;;5035358;28;20187;-38
2022/04/27 04:20:48;;;;;;;11.53;7.07;;;5.00;99.90;;;;;;5034912;28;20210;-41
2022/04/27 04:23:14;;;;;;;11.77;8.10;;;5.00;99.90;;;;;;5034947;28;20672;-41
2022/04/27 04:28:29;;;;;;;11.27;7.90;;;5.00;99.90;;;;;;5035053;28;20219;-40
2022/04/27 04:30:57;;;;;;;10.00;7.23;;;4.90;99.90;;;;;;5034759;28;20161;-42
2022/04/27 04:33:22;;;;;;;12.33;8.23;;;5.00;99.90;;;;;;5034404;28;20632;-42
2022/04/27 04:35:48;;;;;;;11.53;7.40;;;5.00;99.90;;;;;;5034417;28;20173;-41
2022/04/27 04:38:14;;;;;;;11.70;7.50;;;5.00;99.90;;;;;;5034111;28;20802;-40
2022/04/27 04:40:40;;;;;;;10.87;7.30;;;5.00;99.90;;;;;;5034671;28;20260;-41
2022/04/27 04:43:06;;;;;;;11.70;7.27;;;5.00;99.90;;;;;;5034883;28;20276;-42
2022/04/27 04:45:31;;;;;;;12.67;7.43;;;5.00;99.90;;;;;;5035415;28;20525;-42
2022/04/27 04:47:57;;;;;;;11.20;7.10;;;4.90;99.90;;;;;;5035257;28;20220;-41
2022/04/27 04:50:23;;;;;;;11.97;7.43;;;4.90;99.90;;;;;;5035123;28;20703;-43
2022/04/27 04:52:49;;;;;;;11.90;7.03;;;4.90;99.90;;;;;;5034656;28;20187;-42
2022/04/27 04:55:15;;;;;;;12.47;7.30;;;5.00;99.90;;;;;;5034277;28;20204;-40
2022/04/27 04:57:41;;;;;;;11.60;6.80;;;4.90;99.90;;;;;;5033839;28;20575;-40
2022/04/27 05:00:09;;;;;;;9.23;6.43;;;4.90;99.90;;;;;;5033711;28;20235;-40
2022/04/27 05:02:35;;;;;;;11.53;6.93;;;4.90;99.90;;;;;;5034324;28;20715;-38
2022/04/27 05:05:04;;;;;;;9.40;6.97;;;4.90;99.90;;;;;;5033797;28;20166;-39
2022/04/27 05:07:33;;;;;;;11.20;7.60;;;4.90;99.90;;;;;;5035325;28;20218;-38
2022/04/27 05:09:59;;;;;;;8.40;6.93;;;4.80;99.90;;;;;;5033656;28;20192;-37
2022/04/27 05:12:25;;;;;;;11.20;7.70;;;4.90;99.90;;;;;;5033721;28;20595;-39
2022/04/27 05:14:52;;;;;;;10.60;6.73;;;7.20;99.90;;;;;;5036197;28;20524;-40
2022/04/27 05:17:18;;;;;;;11.77;7.57;;;4.90;99.90;;;;;;5032176;28;20787;-39
2022/04/27 05:19:43;;;;;;;12.77;7.63;;;4.90;99.90;;;;;;5033625;28;20314;-41
2022/04/27 05:22:09;;;;;;;11.30;7.73;;;4.90;99.90;;;;;;5033597;28;20174;-41
2022/04/27 05:24:35;;;;;;;14.17;8.20;;;5.00;99.90;;;;;;5033810;28;20236;-40
2022/04/27 05:27:01;;;;;;;14.70;8.83;;;5.00;99.90;;;;;;5033591;28;20675;-42
2022/04/27 05:32:12;;;;;;;16.83;8.87;;;5.10;99.90;;;;;;5034893;28;20168;-40
2022/04/27 05:34:37;;;;;;;18.20;10.77;;;5.20;99.90;;;;;;5034803;28;20186;-44
2022/04/27 05:37:04;;;;;;;19.03;9.23;;;5.30;99.90;;;;;;5033650;28;20231;-45
2022/04/27 05:39:29;;;;;;;16.33;10.17;;;5.30;99.90;;;;;;5033256;28;20283;-44
2022/04/27 05:41:55;;;;;;;20.10;10.23;;;5.40;99.90;;;;;;5033724;28;20600;-44
2022/04/27 05:44:23;;;;;;;15.60;9.03;;;5.50;99.90;;;;;;5033434;28;20289;-44
2022/04/27 05:46:53;;;;;;;18.07;10.27;;;5.60;99.90;;;;;;5032138;28;20246;-45
2022/04/27 05:49:20;;;;;;;17.10;10.17;;;5.70;99.90;;;;;;5033800;28;20173;-43
2022/04/27 05:51:46;;;;;;;18.30;9.63;;;5.70;99.90;;;;;;5033624;28;20220;-46
2022/04/27 05:54:14;;;;;;;25.27;9.83;;;5.80;99.90;;;;;;5033358;28;20202;-43
2022/04/27 05:56:40;;;;;;;13.27;8.53;;;5.80;99.90;;;;;;5033116;28;20201;-43
2022/04/27 05:59:07;;;;;;;13.57;10.03;;;5.90;99.90;;;;;;5033144;28;20625;-44
2022/04/27 06:01:32;;;;;;;28.33;11.30;;;6.00;99.90;;;;;;5033167;28;20253;-45
2022/04/27 06:03:58;;;;;;;19.93;10.43;;;6.00;99.90;;;;;;5033073;28;20656;-44
2022/04/27 06:06:24;;;;;;;13.77;9.27;;;6.10;99.90;;;;;;5033408;28;20235;-43
2022/04/27 06:08:50;;;;;;;14.53;9.67;;;6.20;99.90;;;;;;5033220;28;20264;-43
2022/04/27 06:11:17;;;;;;;19.13;9.70;;;6.30;99.90;;;;;;5033360;28;20177;-42
2022/04/27 06:13:43;;;;;;;17.13;9.97;;;6.40;99.90;;;;;;5033300;28;20604;-45
2022/04/27 06:16:08;;;;;;;12.77;9.57;;;6.50;99.90;;;;;;5033216;28;20267;-44
2022/04/27 06:18:34;;;;;;;16.80;10.23;;;6.60;99.90;;;;;;5033043;28;20231;-45
2022/04/27 06:21:00;;;;;;;16.13;11.60;;;6.80;99.90;;;;;;5032988;28;20660;-44
2022/04/27 06:23:26;;;;;;;15.67;10.40;;;6.90;99.90;;;;;;5033199;28;20660;-45
2022/04/27 06:25:52;;;;;;;13.37;9.57;;;7.00;99.90;;;;;;5033497;28;20556;-43
2022/04/27 06:28:18;;;;;;;13.53;9.60;;;7.10;99.90;;;;;;5033151;28;20201;-46
2022/04/27 06:30:44;;;;;;;15.77;10.57;;;7.30;99.90;;;;;;5033386;28;20240;-44
2022/04/27 06:33:09;;;;;;;15.23;10.00;;;7.40;99.90;;;;;;5033304;28;20293;-43
2022/04/27 06:35:35;;;;;;;16.37;10.13;;;7.60;99.90;;;;;;5033311;28;20178;-43
2022/04/27 06:38:00;;;;;;;16.37;9.80;;;7.70;99.90;;;;;;5033160;28;20250;-44
2022/04/27 06:40:26;;;;;;;17.93;9.83;;;7.90;99.90;;;;;;5032845;28;20628;-44
2022/04/27 06:42:53;;;;;;;13.77;9.00;;;8.00;99.90;;;;;;5032801;28;20180;-43
2022/04/27 06:45:19;;;;;;;13.77;9.67;;;8.10;99.90;;;;;;5033576;28;20176;-44
2022/04/27 06:47:44;;;;;;;14.27;9.00;;;8.30;99.90;;;;;;5032651;28;20612;-45
2022/04/27 06:50:13;;;;;;;17.20;10.93;;;8.40;99.90;;;;;;5036010;28;20196;-44
2022/04/27 06:52:48;;;;;;;17.17;9.63;;;8.50;99.90;;;;;;5036333;28;20219;-43
2022/04/27 06:55:15;;;;;;;15.73;9.27;;;8.50;99.90;;;;;;5036222;28;20197;-45
2022/04/27 06:57:41;;;;;;;16.63;9.73;;;8.60;99.90;;;;;;5035955;28;20188;-44
2022/04/27 07:00:08;;;;;;;12.73;8.77;;;8.70;99.90;;;;;;5036036;28;20234;-44
2022/04/27 07:02:34;;;;;;;15.63;10.40;;;8.80;99.90;;;;;;5036242;28;20180;-45
2022/04/27 07:05:01;;;;;;;15.33;9.40;;;9.00;99.90;;;;;;5036316;28;20183;-46
2022/04/27 07:07:36;;;;;;;16.23;9.87;;;9.20;99.90;;;;;;5036027;28;20196;-42
2022/04/27 07:10:02;;;;;;;13.80;10.20;;;9.40;99.90;;;;;;5036360;28;20179;-42
2022/04/27 07:12:28;;;;;;;13.17;10.33;;;9.50;99.90;;;;;;5035968;28;20188;-38
2022/04/27 07:14:54;;;;;;;12.53;9.20;;;9.60;99.90;;;;;;5036169;28;20643;-41
2022/04/27 07:17:19;;;;;;;11.93;8.97;;;9.70;99.90;;;;;;5036639;28;20239;-41
2022/04/27 07:19:45;;;;;;;16.57;9.63;;;9.70;99.90;;;;;;5035787;28;20186;-42
2022/04/27 07:22:12;;;;;;;11.33;9.10;;;9.90;99.90;;;;;;5036151;28;20534;-40
2022/04/27 07:24:38;;;;;;;17.53;8.07;;;10.10;99.90;;;;;;5038174;28;20173;-41
2022/04/27 07:27:05;;;;;;;13.43;7.63;;;10.10;99.90;;;;;;5036254;28;20201;-40
2022/04/27 07:29:30;;;;;;;15.07;8.77;;;10.20;99.90;;;;;;5035621;28;20182;-41
2022/04/27 07:31:56;;;;;;;12.90;8.47;;;10.30;99.90;;;;;;5035517;28;20188;-41
2022/04/27 07:34:22;;;;;;;16.77;8.03;;;10.40;99.90;;;;;;5035409;28;20277;-40
2022/04/27 07:36:48;;;;;;;13.50;7.77;;;10.40;99.90;;;;;;5035930;28;20252;-39
2022/04/27 07:39:14;;;;;;;15.93;7.20;;;10.40;99.90;;;;;;5035369;28;20269;-41
2022/04/27 07:41:40;;;;;;;11.37;7.40;;;10.40;99.90;;;;;;5035369;28;20186;-41
2022/04/27 07:44:08;;;;;;;12.63;7.23;;;10.40;99.90;;;;;;5036582;28;20180;-40
2022/04/27 07:46:34;;;;;;;11.27;6.87;;;10.50;99.90;;;;;;5035789;28;20657;-39
2022/04/27 07:48:59;;;;;;;12.40;7.23;;;10.60;99.90;;;;;;5035256;28;20238;-41
2022/04/27 07:51:25;;;;;;;13.07;6.13;;;10.60;99.90;;;;;;5035192;28;20187;-41
2022/04/27 07:53:50;;;;;;;13.10;6.73;;;10.70;99.90;;;;;;5034955;28;20207;-40
2022/04/27 07:56:16;;;;;;;8.53;6.50;;;10.80;99.90;;;;;;5034894;28;20207;-41
2022/04/27 07:58:42;;;;;;;9.23;5.87;;;10.90;99.90;;;;;;5035184;28;20222;-41
2022/04/27 08:01:07;;;;;;;8.30;5.73;;;10.90;99.90;;;;;;5035287;28;20196;-40
2022/04/27 08:03:33;;;;;;;8.47;6.03;;;11.00;99.90;;;;;;5034782;28;20185;-41
2022/04/27 08:06:01;;;;;;;11.50;5.43;;;11.20;99.90;;;;;;5034658;28;20184;-41
2022/04/27 08:08:27;;;;;;;6.80;5.67;;;11.30;99.90;;;;;;5034937;28;20185;-41
2022/04/27 08:10:52;;;;;;;7.90;5.73;;;11.40;99.90;;;;;;5034671;28;20554;-40
2022/04/27 08:13:18;;;;;;;9.50;5.93;;;11.60;99.90;;;;;;5035018;28;20212;-41
2022/04/27 08:15:44;;;;;;;13.43;6.33;;;11.60;99.90;;;;;;5034760;28;20207;-40
2022/04/27 08:18:10;;;;;;;7.30;5.60;;;11.70;99.90;;;;;;5034493;28;20251;-39
2022/04/27 08:23:23;;;;;;;12.20;6.20;;;12.20;99.90;;;;;;5034771;28;20227;-42
2022/04/27 08:25:49;;;;;;;6.10;5.13;;;12.30;99.90;;;;;;5033095;28;20289;-42
2022/04/27 08:28:16;;;;;;;8.17;5.60;;;12.30;99.90;;;;;;5034298;28;20223;-41
2022/04/27 08:30:43;;;;;;;9.63;5.37;;;12.40;99.90;;;;;;5035332;28;20177;-42
2022/04/27 08:33:10;;;;;;;8.10;4.70;;;12.30;99.90;;;;;;5034212;28;20258;-40
2022/04/27 08:35:36;;;;;;;6.13;4.43;;;12.40;99.90;;;;;;5034488;28;20573;-43
2022/04/27 08:38:04;;;;;;;9.73;4.53;;;12.50;99.90;;;;;;5034234;28;20691;-40
2022/04/27 08:40:30;;;;;;;5.37;4.43;;;12.60;99.90;;;;;;5034168;28;20595;-42
2022/04/27 08:42:57;;;;;;;6.80;4.73;;;12.60;99.90;;;;;;5034964;28;20242;-40
2022/04/27 08:45:23;;;;;;;9.70;4.90;;;12.60;99.90;;;;;;5034091;28;20560;-41
2022/04/27 08:47:50;;;;;;;9.13;4.73;;;12.70;99.90;;;;;;5034214;28;20204;-41
2022/04/27 08:50:18;;;;;;;9.00;4.80;;;12.70;99.90;;;;;;5034420;28;20180;-40
2022/04/27 08:52:45;;;;;;;9.13;4.73;;;12.80;99.90;;;;;;5034068;28;20209;-42
2022/04/27 08:55:12;;;;;;;6.73;4.87;;;12.70;99.90;;;;;;5034135;28;20219;-40
2022/04/27 08:57:38;;;;;;;6.10;4.80;;;12.80;99.90;;;;;;5033775;28;20284;-42
2022/04/27 09:00:11;;;;;;;7.30;4.33;;;12.90;99.90;;;;;;5034102;28;20188;-41
2022/04/27 09:02:36;;;;;;;7.00;4.70;;;13.10;99.90;;;;;;5034076;28;20174;-41
2022/04/27 09:05:17;;;;;;;5.90;4.30;;;13.20;99.90;;;;;;5034298;28;20173;-40
2022/04/27 09:07:53;;;;;;;7.87;4.00;;;13.20;99.90;;;;;;5034315;28;20575;-41
2022/04/27 09:10:27;;;;;;;8.53;4.40;;;13.10;99.90;;;;;;5035134;28;20531;-39
2022/04/27 09:12:55;;;;;;;6.53;4.57;;;13.30;99.90;;;;;;5034042;28;20199;-43
2022/04/27 09:15:23;;;;;;;6.47;3.57;;;13.40;99.90;;;;;;5033888;28;20176;-39
2022/04/27 09:20:47;;;;;;;7.87;4.73;;;13.70;99.90;;;;;;5033779;28;20250;-41
2022/04/27 09:23:24;;;;;;;7.10;4.17;;;13.90;99.90;;;;;;5033603;28;20168;-39
2022/04/27 09:26:00;;;;;;;6.03;4.03;;;14.00;99.90;;;;;;5033333;28;20177;-42
2022/04/27 09:28:31;;;;;;;4.77;4.00;;;14.10;99.90;;;;;;5033626;28;20243;-40
2022/04/27 09:30:58;;;;;;;6.53;4.20;;;14.10;99.90;;;;;;5033708;28;20537;-42
2022/04/27 09:33:37;;;;;;;6.23;3.53;;;14.10;99.90;;;;;;5033404;28;20342;-40
2022/04/27 09:36:19;;;;;;;5.93;3.87;;;14.10;99.90;;;;;;5033479;28;20169;-39
2022/04/27 09:38:45;;;;;;;7.50;4.20;;;14.10;99.90;;;;;;5033332;28;20181;-38
2022/04/27 09:41:11;;;;;;;5.43;3.90;;;14.20;99.90;;;;;;5033214;28;20318;-41
2022/04/27 09:43:44;;;;;;;5.80;4.07;;;14.30;99.90;;;;;;5033268;28;20185;-39
2022/04/27 09:46:27;;;;;;;7.37;4.20;;;14.40;99.90;;;;;;5033380;28;20169;-39
2022/04/27 09:49:02;;;;;;;6.50;4.13;;;14.40;99.90;;;;;;5033357;28;20561;-39
2022/04/27 09:51:28;;;;;;;5.27;4.23;;;14.50;99.90;;;;;;5033195;28;20254;-41
2022/04/27 09:53:56;;;;;;;8.30;4.80;;;14.50;99.90;;;;;;5032987;28;20572;-39
2022/04/27 09:56:24;;;;;;;6.80;4.40;;;14.50;99.90;;;;;;5033312;28;20211;-41
2022/04/27 09:58:50;;;;;;;6.70;4.63;;;14.40;99.90;;;;;;5033432;28;20170;-39
2022/04/27 10:01:17;;;;;;;5.23;4.30;;;14.50;99.90;;;;;;5033099;28;20668;-40
2022/04/27 10:03:48;;;;;;;6.83;5.13;;;14.60;99.90;;;;;;5033003;28;20181;-41
2022/04/27 10:06:15;;;;;;;8.00;5.20;;;14.60;99.90;;;;;;5033167;28;20256;-41
2022/04/27 10:08:42;;;;;;;6.80;5.30;;;14.40;99.90;;;;;;5032906;28;20212;-40
2022/04/27 10:11:11;;;;;;;8.00;5.70;;;14.40;99.90;;;;;;5032985;28;20200;-42
2022/04/27 10:13:37;;;;;;;11.33;6.67;;;14.40;99.90;;;;;;5033052;28;20205;-42
2022/04/27 10:16:03;;;;;;;8.27;6.00;;;14.40;99.90;;;;;;5033068;28;20252;-40
2022/04/27 10:18:30;;;;;;;6.03;5.40;;;14.50;99.90;;;;;;5032974;28;20184;-44
2022/04/27 10:20:55;;;;;;;9.03;5.87;;;14.50;99.90;;;;;;5032926;28;20543;-41
2022/04/27 10:23:31;;;;;;;11.23;5.70;;;14.70;99.90;;;;;;5034837;28;20177;-43
2022/04/27 10:26:17;;;;;;;7.33;5.53;;;15.00;99.90;;;;;;5036739;28;20533;-39
2022/04/27 10:28:51;;;;;;;7.60;6.40;;;15.20;99.90;;;;;;5036841;28;20208;-42
2022/04/27 10:31:47;;;;;;;8.87;6.47;;;15.10;99.90;;;;;;5036501;28;20158;-41
2022/04/27 10:34:20;;;;;;;8.63;6.73;;;14.90;99.90;;;;;;5036695;28;20201;-42
2022/04/27 10:36:53;;;;;;;7.30;6.27;;;14.80;99.90;;;;;;5036325;28;20254;-40
2022/04/27 10:39:23;;;;;;;8.87;6.17;;;14.80;99.90;;;;;;5036301;28;20220;-42
2022/04/27 10:42:02;;;;;;;8.07;5.80;;;14.80;99.90;;;;;;5036626;28;20173;-41
2022/04/27 10:44:50;;;;;;;7.23;6.10;;;14.90;99.90;;;;;;5036535;28;20180;-42
2022/04/27 10:47:20;;;;;;;8.90;6.10;;;15.00;99.90;;;;;;5036031;28;20193;-38
2022/04/27 10:49:47;;;;;;;6.53;5.80;;;15.20;99.90;;;;;;5036517;28;20260;-40
2022/04/27 10:52:13;;;;;;;8.90;6.30;;;15.40;99.90;;;;;;5034858;28;20209;-43
2022/04/27 10:54:40;;;;;;;8.10;6.00;;;15.60;99.90;;;;;;5036052;28;20204;-41
2022/04/27 10:57:15;;;;;;;9.43;6.30;;;15.60;99.90;;;;;;5036172;28;20219;-42
2022/04/27 10:59:48;;;;;;;8.63;6.00;;;15.60;99.90;;;;;;5036006;28;20180;-42
2022/04/27 11:02:33;;;;;;;8.40;5.93;;;15.60;99.90;;;;;;5035946;28;20177;-42
2022/04/27 11:05:00;;;;;;;10.10;6.67;;;15.60;99.90;;;;;;5035903;28;20173;-41
2022/04/27 11:07:39;;;;;;;7.90;5.63;;;15.70;99.90;;;;;;5036027;28;20205;-40
2022/04/27 11:10:11;;;;;;;10.63;6.23;;;15.80;99.90;;;;;;5036094;28;20581;-41
2022/04/27 11:12:39;;;;;;;10.83;7.07;;;16.00;99.90;;;;;;5035982;28;20555;-42
2022/04/27 11:15:06;;;;;;;7.53;6.20;;;15.90;99.90;;;;;;5035963;28;20235;-41
2022/04/27 11:17:35;;;;;;;8.57;6.10;;;15.90;99.90;;;;;;5035509;28;20207;-41
2022/04/27 11:20:04;;;;;;;10.53;6.50;;;15.80;99.90;;;;;;5035638;28;20177;-42
2022/04/27 11:22:40;;;;;;;7.83;5.60;;;15.90;99.90;;;;;;5035542;28;20704;-43
2022/04/27 11:25:08;;;;;;;9.10;6.67;;;15.90;99.90;;;;;;5035542;28;20759;-41
2022/04/27 11:27:36;;;;;;;10.80;6.50;;;16.10;99.90;;;;;;5035513;28;20201;-43
2022/04/27 11:30:04;;;;;;;9.60;6.80;;;16.00;99.90;;;;;;5035422;28;20592;-42
2022/04/27 11:32:30;;;;;;;7.90;6.07;;;16.00;99.90;;;;;;5035295;28;20303;-40
2022/04/27 11:34:55;;;;;;;8.67;6.37;;;16.10;99.90;;;;;;5034975;28;20624;-43
2022/04/27 11:37:21;;;;;;;8.47;6.13;;;16.10;99.90;;;;;;5035576;28;20661;-42
2022/04/27 11:39:49;;;;;;;9.97;5.93;;;16.20;99.90;;;;;;5035199;28;20235;-42
2022/04/27 11:42:16;;;;;;;11.47;6.43;;;16.30;99.90;;;;;;5035814;28;20636;-48
2022/04/27 11:44:52;;;;;;;9.80;6.47;;;16.50;99.90;;;;;;5037316;28;20234;-48
2022/04/27 11:47:30;;;;;;;11.70;6.70;;;16.50;99.90;;;;;;5036119;28;20274;-49
2022/04/27 11:49:57;;;;;;;12.60;5.97;;;16.40;99.90;;;;;;5037166;28;20173;-47
2022/04/27 11:52:23;;;;;;;7.17;6.40;;;16.30;99.90;;;;;;5037137;28;20181;-49
2022/04/27 11:54:49;;;;;;;9.40;6.50;;;16.30;99.90;;;;;;5036961;28;20205;-49
2022/04/27 11:57:22;;;;;;;8.83;5.97;;;16.30;99.90;;;;;;5037001;28;20502;-49
2022/04/27 11:59:51;;;;;;;13.20;6.53;;;16.30;99.90;;;;;;5037039;28;20168;-48
2022/04/27 12:02:22;;;;;;;12.80;6.67;;;16.30;99.90;;;;;;5036733;28;20687;-48
2022/04/27 12:04:49;;;;;;;9.73;6.10;;;16.40;99.90;;;;;;5036711;28;20177;-48
2022/04/27 12:07:16;;;;;;;10.63;6.70;;;16.50;99.90;;;;;;5036691;28;20284;-49
2022/04/27 12:09:54;;;;;;;8.17;6.37;;;16.70;99.90;;;;;;5036148;28;20227;-48
2022/04/27 12:12:20;;;;;;;8.70;6.83;;;16.70;99.90;;;;;;5036127;28;20252;-49
2022/04/27 12:14:45;;;;;;;11.00;7.50;;;16.80;99.90;;;;;;5036309;28;20622;-49
2022/04/27 12:17:50;;;;;;;8.23;6.13;;;16.90;99.90;;;;;;5037117;28;20202;-49
2022/04/27 12:20:22;;;;;;;7.80;6.53;;;16.90;99.90;;;;;;5035883;28;20617;-49
2022/04/27 12:22:56;;;;;;;9.07;6.87;;;17.00;99.90;;;;;;5035739;28;20185;-49
2022/04/27 12:25:56;;;;;;;8.47;6.50;;;16.80;99.90;;;;;;5035584;28;20714;-46
2022/04/27 12:28:46;;;;;;;10.47;6.87;;;16.90;99.90;;;;;;5035986;28;20518;-48
2022/04/27 12:31:16;;;;;;;9.93;7.00;;;17.10;99.90;;;;;;5035387;28;20201;-47
2022/04/27 12:33:49;;;;;;;11.23;6.33;;;16.90;99.90;;;;;;5035742;28;20205;-49
2022/04/27 12:39:20;;;;;;;8.30;6.80;;;16.80;99.90;;;;;;5034226;28;20276;-46
2022/04/27 12:41:47;;;;;;;8.97;6.80;;;17.00;99.90;;;;;;5034341;28;20181;-48
2022/04/27 12:44:17;;;;;;;8.53;6.70;;;17.00;99.90;;;;;;5034157;28;20183;-48
2022/04/27 12:46:59;;;;;;;10.20;6.63;;;17.10;99.90;;;;;;5033112;28;20259;-47
2022/04/27 12:49:47;;;;;;;6.97;5.93;;;17.10;99.90;;;;;;5034185;28;20176;-45
2022/04/27 12:52:30;;;;;;;9.13;7.10;;;17.20;99.90;;;;;;5034257;28;20255;-46
2022/04/27 12:55:09;;;;;;;8.17;6.77;;;17.10;99.90;;;;;;5034341;28;20252;-47
2022/04/27 12:57:45;;;;;;;8.37;6.60;;;17.00;99.90;;;;;;5033784;28;20587;-48
2022/04/27 13:00:11;;;;;;;8.87;6.80;;;17.20;99.90;;;;;;5034064;28;20180;-46
2022/04/27 13:02:37;;;;;;;9.60;7.10;;;17.50;99.90;;;;;;5033809;28;20187;-47
2022/04/27 13:05:04;;;;;;;7.80;6.97;;;17.40;99.90;;;;;;5033937;28;20177;-47
2022/04/27 13:07:29;;;;;;;10.30;6.97;;;17.30;99.90;;;;;;5033612;28;20189;-47
2022/04/27 13:12:39;;;;;;;8.97;6.57;;;17.20;99.90;;;;;;5033584;28;20652;-47
2022/04/27 13:15:06;;;;;;;9.00;6.87;;;17.10;99.90;;;;;;5034142;28;20201;-47